Time;durP1;ratioP1;P1;durP2;ratioP2;P2;SDS_P1;SDS_P2;PMS_P1;PMS_P2;Temp;Humidity;BMP_temperature;BMP_pressure;BME280_temperature;BME280_humidity;BME280_pressure;Samples;Min_cycle;Max_cycle;Signal;HPM_P1;HPM_P2
2023/05/20 00:00:48;;;;;;;8.77;5.70;;;12.90;99.90;;;;;;5065223;28;20104;-67
2023/05/20 00:03:18;;;;;;;14.98;5.65;;;12.80;99.90;;;;;;5055161;28;20049;-67
2023/05/20 00:05:45;;;;;;;12.82;5.88;;;12.80;99.90;;;;;;5068897;28;20037;-67
2023/05/20 00:08:10;;;;;;;9.68;5.90;;;12.80;99.90;;;;;;5069136;28;20124;-69
2023/05/20 00:10:36;;;;;;;11.63;6.00;;;12.80;99.90;;;;;;5064823;28;20119;-67
2023/05/20 00:13:02;;;;;;;10.63;5.50;;;12.80;99.90;;;;;;5070656;28;20032;-67
2023/05/20 00:15:28;;;;;;;11.77;6.03;;;12.80;99.90;;;;;;5052184;28;20029;-67
2023/05/20 00:17:54;;;;;;;9.75;6.18;;;12.80;99.90;;;;;;5070345;28;20379;-68
2023/05/20 00:20:20;;;;;;;11.77;6.13;;;12.80;99.90;;;;;;5068143;28;20047;-67
2023/05/20 00:22:45;;;;;;;9.98;6.32;;;12.80;99.90;;;;;;5069035;28;20465;-67
2023/05/20 00:25:13;;;;;;;9.30;6.25;;;12.70;99.90;;;;;;5068887;28;20032;-69
2023/05/20 00:27:40;;;;;;;11.23;6.20;;;12.70;99.90;;;;;;5068230;28;20046;-67
2023/05/20 00:30:06;;;;;;;9.18;6.20;;;12.70;99.90;;;;;;5060228;28;20024;-67
2023/05/20 00:32:33;;;;;;;9.93;5.95;;;12.70;99.90;;;;;;5066121;28;20033;-67
2023/05/20 00:34:59;;;;;;;11.68;6.25;;;12.60;99.90;;;;;;5068178;28;20032;-68
2023/05/20 00:37:26;;;;;;;9.43;6.03;;;12.60;99.90;;;;;;5067282;28;20024;-67
2023/05/20 00:39:52;;;;;;;10.90;6.30;;;12.60;99.90;;;;;;5067572;28;20021;-68
2023/05/20 00:42:21;;;;;;;12.88;5.78;;;12.50;99.90;;;;;;5069423;28;20052;-68
2023/05/20 00:44:46;;;;;;;7.97;5.65;;;12.50;99.90;;;;;;5062769;28;20048;-67
2023/05/20 00:47:14;;;;;;;11.05;6.20;;;12.50;99.90;;;;;;5067638;28;20044;-69
2023/05/20 00:49:39;;;;;;;8.18;5.93;;;12.50;99.90;;;;;;5065935;28;20050;-67
2023/05/20 00:52:06;;;;;;;10.57;5.78;;;12.50;99.90;;;;;;5067090;28;20028;-68
2023/05/20 00:54:32;;;;;;;10.35;6.05;;;12.50;99.90;;;;;;5067812;28;20109;-67
2023/05/20 00:56:58;;;;;;;10.38;5.95;;;12.50;99.90;;;;;;5068147;28;20111;-67
2023/05/20 00:59:25;;;;;;;11.82;6.43;;;12.50;99.90;;;;;;5063716;28;20032;-68
2023/05/20 01:01:51;;;;;;;9.27;6.28;;;12.40;99.90;;;;;;5056477;28;20048;-67
2023/05/20 01:04:17;;;;;;;9.82;5.63;;;12.40;99.90;;;;;;5057114;28;20021;-68
2023/05/20 01:06:45;;;;;;;9.65;5.97;;;12.40;99.90;;;;;;5068164;28;20830;-67
2023/05/20 01:09:11;;;;;;;11.88;6.40;;;12.40;99.90;;;;;;5063206;28;20040;-69
2023/05/20 01:11:48;;;;;;;10.90;6.07;;;12.40;99.90;;;;;;5069282;28;20077;-67
2023/05/20 01:14:17;;;;;;;10.77;6.15;;;12.40;99.90;;;;;;5064048;28;20021;-69
2023/05/20 01:16:44;;;;;;;9.10;5.75;;;12.40;99.90;;;;;;5067764;28;20560;-67
2023/05/20 01:19:39;;;;;;;9.20;6.05;;;12.30;99.90;;;;;;5065611;28;20037;-68
2023/05/20 01:22:09;;;;;;;12.50;5.90;;;12.30;99.90;;;;;;5055081;28;20396;-68
2023/05/20 01:24:35;;;;;;;11.45;6.22;;;12.30;99.90;;;;;;5059583;28;20063;-68
2023/05/20 01:27:00;;;;;;;14.27;6.60;;;12.30;99.90;;;;;;5054441;28;20083;-67
2023/05/20 01:29:26;;;;;;;13.40;6.15;;;12.20;99.90;;;;;;5066724;28;20039;-68
2023/05/20 01:31:53;;;;;;;10.30;6.20;;;12.20;99.90;;;;;;5058590;28;20037;-67
2023/05/20 01:34:19;;;;;;;13.75;6.22;;;12.10;99.90;;;;;;5046782;28;20397;-67
2023/05/20 01:36:45;;;;;;;9.80;6.47;;;12.10;99.90;;;;;;5056761;28;20024;-68
2023/05/20 01:39:12;;;;;;;13.20;6.25;;;12.10;99.90;;;;;;5065730;28;20461;-68
2023/05/20 01:41:39;;;;;;;12.70;6.70;;;12.10;99.90;;;;;;5062356;28;20032;-68
2023/05/20 01:44:05;;;;;;;12.25;6.60;;;12.00;99.90;;;;;;5057210;28;20086;-68
2023/05/20 01:46:34;;;;;;;11.70;6.65;;;11.90;99.90;;;;;;5067690;28;20088;-68
2023/05/20 01:49:00;;;;;;;10.65;6.68;;;12.00;99.90;;;;;;5067487;28;20103;-68
2023/05/20 01:51:25;;;;;;;11.63;6.25;;;12.00;99.90;;;;;;5066477;28;20108;-68
2023/05/20 01:53:51;;;;;;;11.25;6.68;;;12.00;99.90;;;;;;5050592;28;20116;-68
2023/05/20 01:56:16;;;;;;;11.45;6.22;;;12.00;99.90;;;;;;5061025;28;20051;-69
2023/05/20 01:58:42;;;;;;;10.32;6.60;;;12.00;99.90;;;;;;5066958;28;20040;-68
2023/05/20 02:01:08;;;;;;;11.98;6.40;;;12.00;99.90;;;;;;5060750;28;20036;-68
2023/05/20 02:03:33;;;;;;;10.15;6.63;;;12.00;99.90;;;;;;5062965;28;20053;-68
2023/05/20 02:05:59;;;;;;;11.55;6.38;;;12.00;99.90;;;;;;5059881;28;20058;-68
2023/05/20 02:08:26;;;;;;;10.73;6.20;;;12.00;99.90;;;;;;5060662;28;20430;-68
2023/05/20 02:10:51;;;;;;;12.10;6.80;;;11.80;99.90;;;;;;5055395;28;20118;-68
2023/05/20 02:13:17;;;;;;;11.07;6.68;;;11.60;99.90;;;;;;5047956;28;20035;-69
2023/05/20 02:15:43;;;;;;;9.95;6.22;;;11.40;99.90;;;;;;5054483;28;20411;-68
2023/05/20 02:18:11;;;;;;;11.60;6.20;;;11.30;99.90;;;;;;5060090;28;20506;-68
2023/05/20 02:20:36;;;;;;;10.52;6.55;;;11.20;99.90;;;;;;5066488;28;20131;-68
2023/05/20 02:23:04;;;;;;;10.63;6.80;;;11.20;99.90;;;;;;5066527;28;20082;-68
2023/05/20 02:25:30;;;;;;;13.85;7.18;;;11.20;99.90;;;;;;5054285;28;20037;-68
2023/05/20 02:27:56;;;;;;;9.85;6.30;;;11.30;99.90;;;;;;5058411;28;20051;-68
2023/05/20 02:30:22;;;;;;;10.60;6.53;;;11.30;99.90;;;;;;5064260;28;20164;-68
2023/05/20 02:32:47;;;;;;;11.60;6.28;;;11.30;99.90;;;;;;5056739;28;20494;-67
2023/05/20 02:35:13;;;;;;;11.93;6.70;;;11.30;99.90;;;;;;5067370;28;20037;-68
2023/05/20 02:37:39;;;;;;;9.80;6.18;;;11.40;99.90;;;;;;5060066;28;20031;-67
2023/05/20 02:40:05;;;;;;;12.52;6.75;;;11.40;99.90;;;;;;5069623;28;20025;-67
2023/05/20 02:42:31;;;;;;;10.57;6.32;;;11.40;99.90;;;;;;5063812;28;20067;-67
2023/05/20 02:44:57;;;;;;;12.05;6.65;;;11.40;99.90;;;;;;5064245;28;20736;-67
2023/05/20 02:47:24;;;;;;;10.85;6.68;;;11.30;99.90;;;;;;5070653;28;20045;-68
2023/05/20 02:49:50;;;;;;;10.52;6.13;;;11.30;99.90;;;;;;5070855;28;20032;-67
2023/05/20 02:52:15;;;;;;;13.68;6.85;;;11.30;99.90;;;;;;5070248;28;20082;-68
2023/05/20 02:54:41;;;;;;;10.32;6.50;;;11.30;99.90;;;;;;5065323;28;20032;-67
2023/05/20 02:57:07;;;;;;;11.88;6.65;;;11.30;99.90;;;;;;5066189;28;20033;-68
2023/05/20 02:59:32;;;;;;;10.77;6.85;;;11.30;99.90;;;;;;5069175;28;20100;-68
2023/05/20 03:01:58;;;;;;;13.30;7.13;;;11.30;99.90;;;;;;5069124;28;20533;-67
2023/05/20 03:04:25;;;;;;;11.90;7.43;;;11.30;99.90;;;;;;5068679;28;20036;-68
2023/05/20 03:06:50;;;;;;;10.73;6.22;;;11.30;99.90;;;;;;5067138;28;20078;-68
2023/05/20 03:09:18;;;;;;;13.68;6.75;;;11.30;99.90;;;;;;5055134;28;20036;-68
2023/05/20 03:11:45;;;;;;;11.73;6.72;;;11.30;99.90;;;;;;5065139;28;20476;-67
2023/05/20 03:14:10;;;;;;;10.70;6.70;;;11.30;99.90;;;;;;5070935;28;20025;-69
2023/05/20 03:16:36;;;;;;;11.73;7.15;;;11.30;99.90;;;;;;5067471;28;20500;-67
2023/05/20 03:19:02;;;;;;;13.57;7.80;;;11.20;99.90;;;;;;5063361;28;20106;-68
2023/05/20 03:21:28;;;;;;;13.20;7.30;;;11.20;99.90;;;;;;5066681;28;20075;-67
2023/05/20 03:23:54;;;;;;;12.77;7.50;;;11.10;99.90;;;;;;5057792;28;20032;-68
2023/05/20 03:26:20;;;;;;;11.43;7.10;;;11.10;99.90;;;;;;5063339;28;20028;-69
2023/05/20 03:28:46;;;;;;;11.27;7.38;;;11.00;99.90;;;;;;5066795;28;20032;-67
2023/05/20 03:31:11;;;;;;;15.07;7.32;;;11.00;99.90;;;;;;5057465;28;20024;-68
2023/05/20 03:33:37;;;;;;;12.02;7.43;;;11.00;99.90;;;;;;5069160;28;20480;-67
2023/05/20 03:36:03;;;;;;;15.43;7.78;;;11.00;99.90;;;;;;5068928;28;20033;-68
2023/05/20 03:38:29;;;;;;;12.13;7.57;;;11.00;99.90;;;;;;5066551;28;20472;-67
2023/05/20 03:40:55;;;;;;;13.30;7.47;;;10.90;99.90;;;;;;5065017;28;20420;-68
2023/05/20 03:43:21;;;;;;;13.30;7.43;;;10.90;99.90;;;;;;5068145;28;20024;-69
2023/05/20 03:45:46;;;;;;;13.30;8.02;;;10.90;99.90;;;;;;5068475;28;20028;-68
2023/05/20 03:48:12;;;;;;;13.90;7.55;;;10.90;99.90;;;;;;5065195;28;20098;-67
2023/05/20 03:50:37;;;;;;;12.25;7.57;;;10.90;99.90;;;;;;5058853;28;20032;-67
2023/05/20 03:53:03;;;;;;;12.65;7.07;;;10.90;99.90;;;;;;5068468;28;20122;-67
2023/05/20 03:55:29;;;;;;;11.77;7.63;;;10.90;99.90;;;;;;5066013;28;20480;-68
2023/05/20 03:57:54;;;;;;;13.88;7.47;;;10.90;99.90;;;;;;5070057;28;20639;-67
2023/05/20 04:00:20;;;;;;;13.73;7.22;;;10.90;99.90;;;;;;5067536;28;20465;-69
2023/05/20 04:02:46;;;;;;;12.70;8.07;;;10.90;99.90;;;;;;5050664;28;20191;-68
2023/05/20 04:05:12;;;;;;;12.30;7.55;;;10.90;99.90;;;;;;5067843;28;20484;-68
2023/05/20 04:07:38;;;;;;;11.07;7.30;;;10.90;99.90;;;;;;5066420;28;20059;-67
2023/05/20 04:10:05;;;;;;;13.85;7.97;;;10.90;99.90;;;;;;5064396;28;20029;-67
2023/05/20 04:12:31;;;;;;;17.63;8.15;;;10.80;99.90;;;;;;5067468;28;20032;-67
2023/05/20 04:15:01;;;;;;;12.82;7.82;;;10.80;99.90;;;;;;5062526;28;20060;-68
2023/05/20 04:17:30;;;;;;;12.93;7.73;;;10.90;99.90;;;;;;5067480;28;20495;-68
2023/05/20 04:19:57;;;;;;;18.13;7.57;;;10.90;99.90;;;;;;5065091;28;20032;-68
2023/05/20 04:22:22;;;;;;;14.38;7.55;;;10.90;99.90;;;;;;5067582;28;20041;-69
2023/05/20 04:24:48;;;;;;;13.40;7.75;;;10.90;99.90;;;;;;5067251;28;20040;-67
2023/05/20 04:27:15;;;;;;;11.85;7.60;;;10.90;99.90;;;;;;5070094;28;20040;-67
2023/05/20 04:29:44;;;;;;;12.38;7.50;;;11.00;99.90;;;;;;5057823;28;20060;-67
2023/05/20 04:32:12;;;;;;;13.17;7.77;;;11.00;99.90;;;;;;5056449;28;20106;-67
2023/05/20 04:34:38;;;;;;;12.38;7.35;;;11.00;99.90;;;;;;5063164;28;20037;-67
2023/05/20 04:37:06;;;;;;;12.80;7.75;;;11.00;99.90;;;;;;5067875;28;20032;-68
2023/05/20 04:39:32;;;;;;;12.57;7.80;;;11.00;99.90;;;;;;5065919;28;20059;-67
2023/05/20 04:41:58;;;;;;;11.32;7.38;;;11.00;99.90;;;;;;5058858;28;20118;-67
2023/05/20 04:44:25;;;;;;;15.93;7.82;;;11.00;99.90;;;;;;5068838;28;20098;-69
2023/05/20 04:46:51;;;;;;;13.15;7.75;;;11.00;99.90;;;;;;5066957;28;20035;-67
2023/05/20 04:49:17;;;;;;;13.90;7.80;;;11.00;99.90;;;;;;5067719;28;20040;-67
2023/05/20 04:51:42;;;;;;;11.63;7.70;;;11.10;99.90;;;;;;5065226;28;20036;-68
2023/05/20 04:54:08;;;;;;;14.43;8.27;;;11.20;99.90;;;;;;5066051;28;20036;-68
2023/05/20 04:56:35;;;;;;;15.55;7.82;;;11.30;99.90;;;;;;5061862;28;20031;-68
2023/05/20 04:59:00;;;;;;;12.07;7.50;;;11.40;99.90;;;;;;5068298;28;20472;-68
2023/05/20 05:01:26;;;;;;;12.55;7.68;;;11.50;99.90;;;;;;5060104;28;20028;-70
2023/05/20 05:03:52;;;;;;;14.23;7.70;;;11.80;99.90;;;;;;5065020;28;20036;-69
2023/05/20 05:06:17;;;;;;;13.80;7.28;;;11.90;99.90;;;;;;5065691;28;20044;-69
2023/05/20 05:08:43;;;;;;;11.15;7.13;;;12.10;99.90;;;;;;5066691;28;20228;-69
2023/05/20 05:11:09;;;;;;;12.00;7.50;;;12.20;99.90;;;;;;5063850;28;20504;-69
2023/05/20 05:13:34;;;;;;;13.63;7.25;;;12.30;99.90;;;;;;5062766;28;20032;-68
2023/05/20 05:16:01;;;;;;;13.50;8.05;;;12.40;99.90;;;;;;5068493;28;20035;-68
2023/05/20 05:18:27;;;;;;;13.48;7.88;;;12.40;99.90;;;;;;5058972;28;20036;-70
2023/05/20 05:21:00;;;;;;;13.90;7.95;;;12.50;99.90;;;;;;5062713;28;20029;-68
2023/05/20 05:23:26;;;;;;;14.90;8.18;;;12.40;99.90;;;;;;5069192;28;20038;-70
2023/05/20 05:25:52;;;;;;;16.58;8.27;;;12.40;99.90;;;;;;5062688;28;20033;-68
2023/05/20 05:28:17;;;;;;;16.17;8.30;;;12.30;99.90;;;;;;5066959;28;20072;-69
2023/05/20 05:30:43;;;;;;;14.05;7.95;;;12.40;99.90;;;;;;5050581;28;20094;-69
2023/05/20 05:33:09;;;;;;;13.85;7.57;;;12.60;99.90;;;;;;5067730;28;20119;-68
2023/05/20 05:35:35;;;;;;;17.27;8.25;;;12.80;99.90;;;;;;5063216;28;20023;-68
2023/05/20 05:38:01;;;;;;;14.70;8.48;;;12.90;99.90;;;;;;5069447;28;20047;-68
2023/05/20 05:40:26;;;;;;;12.93;7.93;;;13.00;99.90;;;;;;5063239;28;20017;-70
2023/05/20 05:42:52;;;;;;;14.63;8.00;;;13.00;99.90;;;;;;5065662;28;20068;-67
2023/05/20 05:45:18;;;;;;;14.35;8.75;;;13.00;99.90;;;;;;5063093;28;20059;-69
2023/05/20 05:47:43;;;;;;;20.42;9.20;;;13.00;99.90;;;;;;5056719;28;20040;-68
2023/05/20 05:50:09;;;;;;;16.80;9.02;;;13.10;99.90;;;;;;5067593;28;20029;-68
2023/05/20 05:52:35;;;;;;;14.90;8.73;;;13.20;99.90;;;;;;5066564;28;20074;-68
2023/05/20 05:55:01;;;;;;;14.63;9.32;;;13.40;99.90;;;;;;5049338;28;20090;-68
2023/05/20 05:57:27;;;;;;;16.48;8.98;;;13.40;99.90;;;;;;5055010;28;20111;-69
2023/05/20 05:59:53;;;;;;;14.18;9.18;;;13.60;99.90;;;;;;5065933;28;20139;-69
2023/05/20 06:02:18;;;;;;;18.90;9.15;;;13.70;99.90;;;;;;5064365;28;20560;-69
2023/05/20 06:04:44;;;;;;;15.70;9.48;;;13.80;99.90;;;;;;5060721;28;20040;-68
2023/05/20 06:07:10;;;;;;;18.13;9.55;;;14.00;99.90;;;;;;5057903;28;20021;-68
2023/05/20 06:09:36;;;;;;;17.85;9.35;;;14.10;99.90;;;;;;5067795;28;20025;-69
2023/05/20 06:12:02;;;;;;;18.02;9.18;;;14.10;99.90;;;;;;5060265;28;20074;-68
2023/05/20 06:14:28;;;;;;;16.05;8.80;;;14.10;99.90;;;;;;5057520;28;20029;-70
2023/05/20 06:16:53;;;;;;;13.80;8.75;;;14.10;99.90;;;;;;5057071;28;20031;-68
2023/05/20 06:19:19;;;;;;;19.58;9.65;;;13.90;99.90;;;;;;5062372;28;20026;-69
2023/05/20 06:21:44;;;;;;;20.60;9.63;;;13.90;99.90;;;;;;5053756;28;20037;-68
2023/05/20 06:24:10;;;;;;;16.88;10.00;;;14.00;99.90;;;;;;5064483;28;20128;-69
2023/05/20 06:26:36;;;;;;;16.20;9.02;;;14.10;99.90;;;;;;5055996;28;20025;-69
2023/05/20 06:29:03;;;;;;;16.40;9.68;;;14.00;99.90;;;;;;5055473;28;20188;-68
2023/05/20 06:31:29;;;;;;;15.93;9.00;;;14.00;99.90;;;;;;5062601;28;20040;-70
2023/05/20 06:33:55;;;;;;;15.63;9.25;;;14.00;99.90;;;;;;5066055;28;20033;-70
2023/05/20 06:36:20;;;;;;;16.92;9.32;;;14.00;99.90;;;;;;5062536;28;20025;-69
2023/05/20 06:38:46;;;;;;;15.23;9.20;;;14.00;99.90;;;;;;5047785;28;20033;-69
2023/05/20 06:41:12;;;;;;;16.23;9.30;;;14.10;99.90;;;;;;5048948;28;20035;-70
2023/05/20 06:43:39;;;;;;;20.48;9.27;;;14.10;99.90;;;;;;5056216;28;20043;-69
2023/05/20 06:46:05;;;;;;;18.60;10.23;;;14.20;99.90;;;;;;5064716;28;20370;-69
2023/05/20 06:48:31;;;;;;;15.90;9.27;;;14.30;99.90;;;;;;5057631;28;20945;-70
2023/05/20 06:50:56;;;;;;;19.63;9.90;;;14.30;99.90;;;;;;5055157;28;20028;-69
2023/05/20 06:53:22;;;;;;;17.85;9.25;;;14.40;99.90;;;;;;5058195;28;20505;-69
2023/05/20 06:55:47;;;;;;;20.05;9.48;;;14.50;99.90;;;;;;5055559;28;20103;-71
2023/05/20 06:58:13;;;;;;;20.50;10.10;;;14.50;99.90;;;;;;5062462;28;20036;-69
2023/05/20 07:00:39;;;;;;;16.25;9.75;;;14.60;99.90;;;;;;5055507;28;20127;-70
2023/05/20 07:03:04;;;;;;;17.42;9.30;;;14.80;99.90;;;;;;5054022;28;20048;-73
2023/05/20 07:05:30;;;;;;;14.65;8.70;;;14.90;99.90;;;;;;5044974;28;20033;-74
2023/05/20 07:07:56;;;;;;;17.70;9.15;;;15.20;99.90;;;;;;5042410;28;20058;-75
2023/05/20 07:10:22;;;;;;;13.55;8.65;;;15.30;99.90;;;;;;5047349;28;20039;-73
2023/05/20 07:12:47;;;;;;;17.02;9.20;;;15.20;99.90;;;;;;5052481;28;20568;-69
2023/05/20 07:15:13;;;;;;;16.05;9.27;;;15.20;99.90;;;;;;5064101;28;20047;-70
2023/05/20 07:17:39;;;;;;;16.70;9.30;;;15.20;99.90;;;;;;5064955;28;20041;-70
2023/05/20 07:20:05;;;;;;;17.55;9.50;;;15.50;99.90;;;;;;5050593;28;20029;-69
2023/05/20 07:22:31;;;;;;;16.67;9.13;;;15.60;99.90;;;;;;5052760;28;20112;-69
2023/05/20 07:24:58;;;;;;;14.43;8.55;;;15.60;99.90;;;;;;5048499;28;20498;-69
2023/05/20 07:27:23;;;;;;;23.45;9.02;;;15.70;99.90;;;;;;5061600;28;20068;-69
2023/05/20 07:29:49;;;;;;;16.77;9.82;;;15.60;99.90;;;;;;5059678;28;20067;-70
2023/05/20 07:32:15;;;;;;;17.08;9.02;;;15.70;99.90;;;;;;5057711;28;20024;-70
2023/05/20 07:34:41;;;;;;;16.00;9.02;;;15.80;99.90;;;;;;5060792;28;20029;-69
2023/05/20 07:37:08;;;;;;;13.30;8.70;;;15.90;99.90;;;;;;5056455;28;20040;-69
2023/05/20 07:39:34;;;;;;;18.00;8.55;;;16.20;99.90;;;;;;5052685;28;20032;-69
2023/05/20 07:42:00;;;;;;;17.40;9.63;;;16.20;99.90;;;;;;5064549;28;20086;-70
2023/05/20 07:44:26;;;;;;;14.80;8.20;;;16.30;99.90;;;;;;5058065;28;20028;-69
2023/05/20 07:46:51;;;;;;;13.57;8.23;;;16.30;99.90;;;;;;5063448;28;20051;-69
2023/05/20 07:49:17;;;;;;;17.92;9.00;;;16.40;99.90;;;;;;5058934;28;20071;-69
2023/05/20 07:51:43;;;;;;;14.68;8.45;;;16.40;99.90;;;;;;5070304;28;20102;-69
2023/05/20 07:54:08;;;;;;;16.35;9.10;;;16.30;99.90;;;;;;5066526;28;20510;-69
2023/05/20 07:56:34;;;;;;;14.05;7.97;;;16.20;99.90;;;;;;5061929;28;20020;-70
2023/05/20 07:59:02;;;;;;;14.27;8.90;;;16.30;99.90;;;;;;5061928;28;20028;-69
2023/05/20 08:01:28;;;;;;;13.13;8.40;;;16.30;99.90;;;;;;5059385;28;20040;-69
2023/05/20 08:03:54;;;;;;;15.93;8.77;;;16.10;99.90;;;;;;5053874;28;20393;-69
2023/05/20 08:06:19;;;;;;;19.38;9.23;;;16.10;99.90;;;;;;5059547;28;20029;-69
2023/05/20 08:08:46;;;;;;;13.15;8.75;;;16.40;99.90;;;;;;5060168;28;20116;-70
2023/05/20 08:11:12;;;;;;;21.42;8.82;;;16.50;99.90;;;;;;5060810;28;20033;-69
2023/05/20 08:13:37;;;;;;;17.83;8.60;;;16.70;99.90;;;;;;5057647;28;20028;-69
2023/05/20 08:16:04;;;;;;;18.20;8.70;;;16.90;99.90;;;;;;5055894;28;20033;-69
2023/05/20 08:18:31;;;;;;;15.85;8.02;;;16.90;99.90;;;;;;5061203;28;20036;-69
2023/05/20 08:20:57;;;;;;;20.90;9.13;;;16.80;99.90;;;;;;5056329;28;20040;-69
2023/05/20 08:23:24;;;;;;;14.88;8.00;;;16.70;99.90;;;;;;5059549;28;20037;-69
2023/05/20 08:25:49;;;;;;;13.75;7.88;;;16.70;99.90;;;;;;5062616;28;20029;-69
2023/05/20 08:28:15;;;;;;;12.32;7.80;;;16.70;99.90;;;;;;5055754;28;20033;-69
2023/05/20 08:30:41;;;;;;;19.00;7.88;;;16.70;99.90;;;;;;5064738;28;20032;-69
2023/05/20 08:33:07;;;;;;;13.93;8.50;;;16.70;99.90;;;;;;5064456;28;20033;-70
2023/05/20 08:35:32;;;;;;;13.02;8.00;;;16.70;99.90;;;;;;5062703;28;20040;-69
2023/05/20 08:37:58;;;;;;;18.88;8.63;;;16.80;99.90;;;;;;5055585;28;20066;-69
2023/05/20 08:40:25;;;;;;;14.05;8.02;;;16.70;99.90;;;;;;5056158;28;20040;-70
2023/05/20 08:42:51;;;;;;;14.85;8.18;;;16.80;99.90;;;;;;5055459;28;20037;-73
2023/05/20 08:45:19;;;;;;;18.23;8.77;;;16.90;99.90;;;;;;5064328;28;20031;-72
2023/05/20 08:47:45;;;;;;;14.30;8.20;;;17.30;99.90;;;;;;5065368;28;20531;-74
2023/05/20 08:50:12;;;;;;;15.13;7.65;;;17.70;99.90;;;;;;5059125;28;20037;-74
2023/05/20 08:52:44;;;;;;;13.35;7.97;;;18.20;99.90;;;;;;5051190;28;20039;-73
2023/05/20 08:55:15;;;;;;;14.32;8.30;;;18.50;99.90;;;;;;5070064;28;20029;-74
2023/05/20 08:57:44;;;;;;;14.13;7.50;;;18.70;99.90;;;;;;5059361;28;20036;-73
2023/05/20 09:00:12;;;;;;;11.38;7.75;;;18.80;99.90;;;;;;5056243;28;20020;-73
2023/05/20 09:02:38;;;;;;;12.07;7.97;;;18.60;99.90;;;;;;5061177;28;20053;-73
2023/05/20 09:05:05;;;;;;;11.73;7.57;;;18.50;99.90;;;;;;5053834;28;20104;-74
2023/05/20 09:07:31;;;;;;;15.27;7.47;;;18.50;99.90;;;;;;5058520;28;20032;-72
2023/05/20 09:09:57;;;;;;;18.85;8.18;;;18.80;99.90;;;;;;5060286;28;20029;-73
2023/05/20 09:12:23;;;;;;;16.00;8.68;;;18.70;99.90;;;;;;5060946;28;20119;-72
2023/05/20 09:14:48;;;;;;;13.30;7.40;;;18.90;99.90;;;;;;5056384;28;20744;-73
2023/05/20 09:17:16;;;;;;;16.67;7.78;;;19.20;99.90;;;;;;5063331;28;20532;-73
2023/05/20 09:19:42;;;;;;;11.68;7.07;;;19.40;99.90;;;;;;5057769;28;20366;-73
2023/05/20 09:22:07;;;;;;;10.27;7.22;;;19.30;99.90;;;;;;5057114;28;20051;-72
2023/05/20 09:24:33;;;;;;;10.77;7.30;;;19.20;99.90;;;;;;5058064;28;20037;-73
2023/05/20 09:26:58;;;;;;;14.35;7.63;;;19.30;99.90;;;;;;5049528;28;20025;-73
2023/05/20 09:29:25;;;;;;;15.30;8.32;;;19.20;99.90;;;;;;5069222;28;20037;-72
2023/05/20 09:31:55;;;;;;;14.15;7.85;;;19.10;99.90;;;;;;5065792;28;20047;-74
2023/05/20 09:34:20;;;;;;;11.40;7.60;;;19.50;99.90;;;;;;5059831;28;20111;-72
2023/05/20 09:36:49;;;;;;;12.35;7.70;;;19.20;99.90;;;;;;5065183;28;20655;-73
2023/05/20 09:39:22;;;;;;;12.32;6.93;;;19.20;99.90;;;;;;5063357;28;20123;-75
2023/05/20 09:41:55;;;;;;;13.88;7.85;;;19.20;99.90;;;;;;5056462;28;20521;-75
2023/05/20 09:44:21;;;;;;;16.70;9.95;;;18.90;99.90;;;;;;5054193;28;20031;-74
2023/05/20 09:46:49;;;;;;;13.85;7.90;;;19.10;99.90;;;;;;5068627;28;20021;-73
2023/05/20 09:49:16;;;;;;;11.43;7.63;;;19.30;99.90;;;;;;5061372;28;20045;-73
2023/05/20 09:51:44;;;;;;;16.50;8.13;;;19.30;99.90;;;;;;5055150;28;20036;-73
2023/05/20 09:54:12;;;;;;;11.73;7.13;;;19.30;99.90;;;;;;5057033;28;20024;-74
2023/05/20 09:56:39;;;;;;;11.82;7.63;;;19.40;99.90;;;;;;5064820;28;20082;-74
2023/05/20 09:59:05;;;;;;;18.88;7.55;;;19.40;99.90;;;;;;5065228;28;20060;-72
2023/05/20 10:01:31;;;;;;;12.52;7.50;;;19.40;99.90;;;;;;5048789;28;20508;-74
2023/05/20 10:03:57;;;;;;;12.13;7.47;;;19.50;99.90;;;;;;5059882;28;20036;-74
2023/05/20 10:06:47;;;;;;;14.05;7.00;;;20.00;99.90;;;;;;5068042;28;20110;-74
2023/05/20 10:09:44;;;;;;;11.77;7.10;;;20.40;99.90;;;;;;5063729;28;20047;-74
2023/05/20 10:12:38;;;;;;;10.55;6.95;;;20.40;99.90;;;;;;5062060;28;20036;-74
2023/05/20 10:15:12;;;;;;;10.15;7.00;;;20.60;99.90;;;;;;5057935;28;20021;-74
2023/05/20 10:17:45;;;;;;;13.13;7.28;;;20.80;99.90;;;;;;5067661;28;20032;-73
2023/05/20 10:20:11;;;;;;;10.85;7.15;;;20.50;99.90;;;;;;5058031;28;20116;-74
2023/05/20 10:22:39;;;;;;;11.77;7.10;;;20.70;99.90;;;;;;5054877;28;20099;-73
2023/05/20 10:25:06;;;;;;;17.88;7.20;;;20.90;99.90;;;;;;5061809;28;20028;-74
2023/05/20 10:28:02;;;;;;;12.70;6.63;;;21.00;99.90;;;;;;5056038;28;20048;-73
2023/05/20 10:30:29;;;;;;;12.85;6.28;;;21.40;99.90;;;;;;5049068;28;20120;-74
2023/05/20 10:32:59;;;;;;;10.95;6.43;;;21.60;99.90;;;;;;5046728;28;20037;-74
2023/05/20 10:35:26;;;;;;;16.65;6.85;;;21.80;99.90;;;;;;5058479;28;20620;-74
2023/05/20 10:37:53;;;;;;;12.48;6.45;;;21.90;99.90;;;;;;5067692;28;20068;-73
2023/05/20 10:40:21;;;;;;;9.30;6.22;;;22.20;99.90;;;;;;5067724;28;20513;-75
2023/05/20 10:42:47;;;;;;;8.40;5.82;;;22.40;99.90;;;;;;5067910;28;20039;-74
2023/05/20 10:45:25;;;;;;;9.98;6.80;;;22.70;99.90;;;;;;5068445;28;20056;-74
2023/05/20 10:47:57;;;;;;;10.70;6.38;;;22.80;99.90;;;;;;5067616;28;20044;-74
2023/05/20 10:50:27;;;;;;;8.85;5.75;;;22.80;99.90;;;;;;5066490;28;20037;-74
2023/05/20 10:52:54;;;;;;;12.80;6.07;;;23.00;99.90;;;;;;5065998;28;20033;-72
2023/05/20 10:55:21;;;;;;;12.70;5.85;;;22.80;99.90;;;;;;5068355;28;20029;-73
2023/05/20 10:57:47;;;;;;;10.35;6.22;;;22.40;99.90;;;;;;5063421;28;20439;-73
2023/05/20 11:00:15;;;;;;;9.15;6.35;;;22.30;99.90;;;;;;5047790;28;20039;-73
2023/05/20 11:02:41;;;;;;;10.25;6.20;;;22.40;99.90;;;;;;5056545;28;20064;-74
2023/05/20 11:05:11;;;;;;;12.85;6.10;;;22.20;99.90;;;;;;5068846;28;20020;-73
2023/05/20 11:07:37;;;;;;;9.70;6.75;;;21.80;99.90;;;;;;5070655;28;20038;-73
2023/05/20 11:10:07;;;;;;;41.85;5.97;;;21.80;99.90;;;;;;5070694;28;20123;-74
2023/05/20 11:12:33;;;;;;;8.50;5.97;;;21.70;99.90;;;;;;5067627;28;20052;-74
2023/05/20 11:14:59;;;;;;;10.18;5.47;;;22.10;99.90;;;;;;5071278;28;20064;-73
2023/05/20 11:17:25;;;;;;;10.02;6.07;;;22.40;99.90;;;;;;5064335;28;20025;-73
2023/05/20 11:19:51;;;;;;;8.50;5.63;;;22.10;99.90;;;;;;5068024;28;20033;-74
2023/05/20 11:22:16;;;;;;;8.77;5.80;;;21.80;99.90;;;;;;5069838;28;20028;-73
2023/05/20 11:24:42;;;;;;;8.57;6.25;;;22.00;99.90;;;;;;5070751;28;20477;-73
2023/05/20 11:27:08;;;;;;;13.57;5.45;;;22.20;99.90;;;;;;5069648;28;20028;-74
2023/05/20 11:29:34;;;;;;;11.40;5.85;;;22.10;99.90;;;;;;5067164;28;20542;-73
2023/05/20 11:32:00;;;;;;;8.52;6.03;;;22.20;99.90;;;;;;5067711;28;20485;-72
2023/05/20 11:34:31;;;;;;;9.20;6.03;;;21.70;99.90;;;;;;5062923;28;20025;-72
2023/05/20 11:36:58;;;;;;;7.93;5.80;;;21.80;99.90;;;;;;5061503;28;20021;-74
2023/05/20 11:39:25;;;;;;;9.70;5.32;;;21.80;99.90;;;;;;5069851;28;20040;-73
2023/05/20 11:41:51;;;;;;;8.85;6.00;;;21.80;99.90;;;;;;5069833;28;20028;-74
2023/05/20 11:44:19;;;;;;;11.77;6.30;;;21.50;99.90;;;;;;5066048;28;20392;-74
2023/05/20 11:46:46;;;;;;;12.43;6.20;;;21.60;99.90;;;;;;5068603;28;20611;-74
2023/05/20 11:49:15;;;;;;;9.00;5.97;;;21.60;99.90;;;;;;5050974;28;20151;-74
2023/05/20 11:51:42;;;;;;;12.37;5.73;;;21.80;99.90;;;;;;5051429;28;20116;-73
2023/05/20 11:54:09;;;;;;;13.23;5.32;;;22.30;99.90;;;;;;5068468;28;20359;-72
2023/05/20 11:56:40;;;;;;;8.75;5.03;;;22.80;99.90;;;;;;5071222;28;20098;-73
2023/05/20 11:59:07;;;;;;;7.75;5.10;;;23.10;99.90;;;;;;5069668;28;20095;-73
2023/05/20 12:01:39;;;;;;;10.60;5.43;;;23.20;99.00;;;;;;5061135;28;20041;-73
2023/05/20 12:04:05;;;;;;;10.38;5.68;;;22.90;99.80;;;;;;5050233;28;20580;-73
2023/05/20 12:06:31;;;;;;;12.02;5.22;;;22.60;99.90;;;;;;5061614;28;20032;-73
2023/05/20 12:09:02;;;;;;;10.05;5.07;;;22.50;98.90;;;;;;5067935;28;20086;-74
2023/05/20 12:11:28;;;;;;;10.88;5.30;;;22.20;98.70;;;;;;5068575;28;20141;-73
2023/05/20 12:13:53;;;;;;;10.45;4.60;;;22.20;98.10;;;;;;5056871;28;20488;-73
2023/05/20 12:16:19;;;;;;;7.80;4.90;;;22.30;98.10;;;;;;5064783;28;20507;-72
2023/05/20 12:18:45;;;;;;;10.20;5.32;;;22.40;97.60;;;;;;5065123;28;20032;-72
2023/05/20 12:21:10;;;;;;;9.80;5.43;;;22.40;97.00;;;;;;5068828;28;20031;-72
2023/05/20 12:23:36;;;;;;;12.45;5.22;;;22.20;98.10;;;;;;5063154;28;20033;-70
2023/05/20 12:26:02;;;;;;;9.60;5.20;;;22.10;98.50;;;;;;5069035;28;20121;-72
2023/05/20 12:28:27;;;;;;;7.82;5.07;;;21.80;98.30;;;;;;5062619;28;20036;-73
2023/05/20 12:30:53;;;;;;;9.15;5.38;;;21.70;98.80;;;;;;5062833;28;20040;-73
2023/05/20 12:33:19;;;;;;;6.18;4.90;;;21.60;98.90;;;;;;5069468;28;20070;-74
2023/05/20 12:35:45;;;;;;;9.50;5.20;;;21.60;99.30;;;;;;5069109;28;20500;-72